sensor_id;sensor_type;location;lat;lon;timestamp;temperature;humidity
10581;DHT22;5338;51.500;6.802;2022-09-11T00:02:18;16.50;99.90
10581;DHT22;5338;51.500;6.802;2022-09-11T00:04:46;16.30;99.90
10581;DHT22;5338;51.500;6.802;2022-09-11T00:07:12;16.40;99.90
10581;DHT22;5338;51.500;6.802;2022-09-11T00:12:08;16.40;99.90
10581;DHT22;5338;51.500;6.802;2022-09-11T00:24:23;16.20;99.90
10581;DHT22;5338;51.500;6.802;2022-09-11T00:29:19;16.30;99.90
10581;DHT22;5338;51.500;6.802;2022-09-11T00:39:09;16.00;99.90
10581;DHT22;5338;51.500;6.802;2022-09-11T00:41:39;16.00;99.90
10581;DHT22;5338;51.500;6.802;2022-09-11T00:44:54;16.00;99.90
10581;DHT22;5338;51.500;6.802;2022-09-11T00:46:58;15.80;99.90
10581;DHT22;5338;51.500;6.802;2022-09-11T00:49:28;15.90;99.90
10581;DHT22;5338;51.500;6.802;2022-09-11T00:51:59;15.90;99.90
10581;DHT22;5338;51.500;6.802;2022-09-11T00:54:32;14.70;99.90
10581;DHT22;5338;51.500;6.802;2022-09-11T00:57:02;15.90;99.90
10581;DHT22;5338;51.500;6.802;2022-09-11T00:59:31;15.90;99.90
10581;DHT22;5338;51.500;6.802;2022-09-11T01:02:00;15.90;99.90
10581;DHT22;5338;51.500;6.802;2022-09-11T01:04:27;15.90;99.90
10581;DHT22;5338;51.500;6.802;2022-09-11T01:06:55;15.80;99.90
10581;DHT22;5338;51.500;6.802;2022-09-11T01:09:24;15.80;99.90
10581;DHT22;5338;51.500;6.802;2022-09-11T01:11:58;15.60;99.90
10581;DHT22;5338;51.500;6.802;2022-09-11T01:14:35;15.80;99.90
10581;DHT22;5338;51.500;6.802;2022-09-11T01:17:14;15.90;99.90
10581;DHT22;5338;51.500;6.802;2022-09-11T01:20:03;15.90;99.90
10581;DHT22;5338;51.500;6.802;2022-09-11T01:22:45;15.90;99.90
10581;DHT22;5338;51.500;6.802;2022-09-11T01:25:23;15.80;99.90
10581;DHT22;5338;51.500;6.802;2022-09-11T01:27:53;15.80;99.90
10581;DHT22;5338;51.500;6.802;2022-09-11T01:30:22;15.90;99.90
10581;DHT22;5338;51.500;6.802;2022-09-11T01:33:03;15.80;99.90
10581;DHT22;5338;51.500;6.802;2022-09-11T01:35:39;16.00;99.90
10581;DHT22;5338;51.500;6.802;2022-09-11T01:38:12;15.80;99.90
10581;DHT22;5338;51.500;6.802;2022-09-11T01:40:45;15.80;99.90
10581;DHT22;5338;51.500;6.802;2022-09-11T01:43:18;15.90;99.90
10581;DHT22;5338;51.500;6.802;2022-09-11T01:45:49;15.90;99.90
10581;DHT22;5338;51.500;6.802;2022-09-11T01:48:22;18.20;99.90
10581;DHT22;5338;51.500;6.802;2022-09-11T01:50:51;15.90;99.90
10581;DHT22;5338;51.500;6.802;2022-09-11T01:53:24;15.90;99.90
10581;DHT22;5338;51.500;6.802;2022-09-11T01:55:56;15.90;99.90
10581;DHT22;5338;51.500;6.802;2022-09-11T01:58:29;15.80;99.90
10581;DHT22;5338;51.500;6.802;2022-09-11T02:01:02;15.90;99.90
10581;DHT22;5338;51.500;6.802;2022-09-11T02:03:33;15.80;99.90
10581;DHT22;5338;51.500;6.802;2022-09-11T02:06:05;15.90;99.90
10581;DHT22;5338;51.500;6.802;2022-09-11T02:08:37;15.80;99.90
10581;DHT22;5338;51.500;6.802;2022-09-11T02:11:07;16.00;99.90
10581;DHT22;5338;51.500;6.802;2022-09-11T02:13:41;15.80;99.90
10581;DHT22;5338;51.500;6.802;2022-09-11T02:16:17;16.00;99.90
10581;DHT22;5338;51.500;6.802;2022-09-11T02:18:55;15.70;99.90
10581;DHT22;5338;51.500;6.802;2022-09-11T02:21:23;15.40;99.90
10581;DHT22;5338;51.500;6.802;2022-09-11T02:26:21;15.70;99.90
10581;DHT22;5338;51.500;6.802;2022-09-11T02:28:51;15.70;99.90
10581;DHT22;5338;51.500;6.802;2022-09-11T02:33:46;15.60;99.90
10581;DHT22;5338;51.500;6.802;2022-09-11T02:36:36;15.60;99.90
10581;DHT22;5338;51.500;6.802;2022-09-11T02:39:20;15.70;99.90
10581;DHT22;5338;51.500;6.802;2022-09-11T02:42:00;15.70;99.90
10581;DHT22;5338;51.500;6.802;2022-09-11T02:44:35;15.50;99.90
10581;DHT22;5338;51.500;6.802;2022-09-11T02:47:09;15.60;99.90
10581;DHT22;5338;51.500;6.802;2022-09-11T02:49:46;15.70;99.90
10581;DHT22;5338;51.500;6.802;2022-09-11T02:52:23;15.70;99.90
10581;DHT22;5338;51.500;6.802;2022-09-11T02:55:02;15.60;99.90
10581;DHT22;5338;51.500;6.802;2022-09-11T02:57:34;15.70;99.90
10581;DHT22;5338;51.500;6.802;2022-09-11T03:00:06;15.50;99.90
10581;DHT22;5338;51.500;6.802;2022-09-11T03:02:35;15.60;99.90
10581;DHT22;5338;51.500;6.802;2022-09-11T03:05:08;15.70;99.90
10581;DHT22;5338;51.500;6.802;2022-09-11T03:10:04;15.60;99.90
10581;DHT22;5338;51.500;6.802;2022-09-11T03:15:05;15.80;99.90
10581;DHT22;5338;51.500;6.802;2022-09-11T03:17:34;15.50;99.90
10581;DHT22;5338;51.500;6.802;2022-09-11T03:24:55;15.70;99.90
10581;DHT22;5338;51.500;6.802;2022-09-11T03:27:22;15.90;99.90
10581;DHT22;5338;51.500;6.802;2022-09-11T03:32:17;15.80;99.90
10581;DHT22;5338;51.500;6.802;2022-09-11T03:34:44;15.80;99.90
10581;DHT22;5338;51.500;6.802;2022-09-11T03:42:08;15.60;99.90
10581;DHT22;5338;51.500;6.802;2022-09-11T03:49:33;15.60;99.90
10581;DHT22;5338;51.500;6.802;2022-09-11T03:52:00;15.50;99.90
10581;DHT22;5338;51.500;6.802;2022-09-11T03:54:27;15.70;99.90
10581;DHT22;5338;51.500;6.802;2022-09-11T03:56:54;15.70;99.90
10581;DHT22;5338;51.500;6.802;2022-09-11T04:06:46;15.50;99.90
10581;DHT22;5338;51.500;6.802;2022-09-11T04:19:02;15.40;99.90
10581;DHT22;5338;51.500;6.802;2022-09-11T04:21:30;15.50;99.90
10581;DHT22;5338;51.500;6.802;2022-09-11T04:24:00;15.50;99.90
10581;DHT22;5338;51.500;6.802;2022-09-11T04:26:28;15.50;99.90
10581;DHT22;5338;51.500;6.802;2022-09-11T04:28:56;15.40;99.90
10581;DHT22;5338;51.500;6.802;2022-09-11T04:33:52;15.40;99.90
10581;DHT22;5338;51.500;6.802;2022-09-11T04:38:47;15.50;99.90
10581;DHT22;5338;51.500;6.802;2022-09-11T04:41:15;15.40;99.90
10581;DHT22;5338;51.500;6.802;2022-09-11T04:46:12;15.40;99.90
10581;DHT22;5338;51.500;6.802;2022-09-11T04:48:42;15.50;99.90
10581;DHT22;5338;51.500;6.802;2022-09-11T04:56:05;15.50;99.90
10581;DHT22;5338;51.500;6.802;2022-09-11T04:58:34;15.40;99.90
10581;DHT22;5338;51.500;6.802;2022-09-11T05:01:06;15.40;99.90
10581;DHT22;5338;51.500;6.802;2022-09-11T05:06:03;15.50;99.90
10581;DHT22;5338;51.500;6.802;2022-09-11T05:15:59;15.40;99.90
10581;DHT22;5338;51.500;6.802;2022-09-11T05:20:58;15.50;99.90
10581;DHT22;5338;51.500;6.802;2022-09-11T05:25:56;15.40;99.90
10581;DHT22;5338;51.500;6.802;2022-09-11T05:33:19;15.50;99.90
10581;DHT22;5338;51.500;6.802;2022-09-11T05:40:43;15.50;99.90
10581;DHT22;5338;51.500;6.802;2022-09-11T05:50:35;15.50;99.90
10581;DHT22;5338;51.500;6.802;2022-09-11T05:55:31;15.60;99.90
10581;DHT22;5338;51.500;6.802;2022-09-11T05:57:59;15.40;99.90
10581;DHT22;5338;51.500;6.802;2022-09-11T06:05:22;15.60;99.90
10581;DHT22;5338;51.500;6.802;2022-09-11T06:07:50;15.60;99.90
10581;DHT22;5338;51.500;6.802;2022-09-11T06:12:44;15.70;99.90
10581;DHT22;5338;51.500;6.802;2022-09-11T06:20:06;15.60;99.90
10581;DHT22;5338;51.500;6.802;2022-09-11T06:22:34;15.60;99.90
10581;DHT22;5338;51.500;6.802;2022-09-11T06:25:04;16.00;99.90
10581;DHT22;5338;51.500;6.802;2022-09-11T06:39:47;16.10;99.90
10581;DHT22;5338;51.500;6.802;2022-09-11T06:42:15;16.00;99.90
10581;DHT22;5338;51.500;6.802;2022-09-11T06:44:43;15.90;99.90
10581;DHT22;5338;51.500;6.802;2022-09-11T06:59:27;16.10;99.90
10581;DHT22;5338;51.500;6.802;2022-09-11T07:01:55;16.10;99.90
10581;DHT22;5338;51.500;6.802;2022-09-11T07:09:16;16.20;99.90
10581;DHT22;5338;51.500;6.802;2022-09-11T07:16:39;16.20;99.90
10581;DHT22;5338;51.500;6.802;2022-09-11T07:28:58;16.30;99.90
10581;DHT22;5338;51.500;6.802;2022-09-11T07:31:26;16.30;99.90
10581;DHT22;5338;51.500;6.802;2022-09-11T07:33:56;16.20;99.90
10581;DHT22;5338;51.500;6.802;2022-09-11T07:36:24;16.20;99.90
10581;DHT22;5338;51.500;6.802;2022-09-11T07:38:52;16.20;99.90
10581;DHT22;5338;51.500;6.802;2022-09-11T07:41:20;16.20;99.90
10581;DHT22;5338;51.500;6.802;2022-09-11T07:43:51;16.20;99.90
10581;DHT22;5338;51.500;6.802;2022-09-11T07:51:16;16.20;99.90
10581;DHT22;5338;51.500;6.802;2022-09-11T07:53:45;16.20;99.90
10581;DHT22;5338;51.500;6.802;2022-09-11T07:56:14;16.10;99.90
10581;DHT22;5338;51.500;6.802;2022-09-11T07:58:43;16.20;99.90
10581;DHT22;5338;51.500;6.802;2022-09-11T08:01:11;16.20;99.90
10581;DHT22;5338;51.500;6.802;2022-09-11T08:06:08;16.10;99.90
10581;DHT22;5338;51.500;6.802;2022-09-11T08:08:36;16.10;99.90
10581;DHT22;5338;51.500;6.802;2022-09-11T08:11:05;15.90;99.90
10581;DHT22;5338;51.500;6.802;2022-09-11T08:13:34;16.50;99.90
10581;DHT22;5338;51.500;6.802;2022-09-11T08:16:02;16.00;99.90
10581;DHT22;5338;51.500;6.802;2022-09-11T08:18:29;15.90;99.90
10581;DHT22;5338;51.500;6.802;2022-09-11T08:21:00;16.00;99.90
10581;DHT22;5338;51.500;6.802;2022-09-11T08:26:03;16.00;99.90
10581;DHT22;5338;51.500;6.802;2022-09-11T08:28:31;16.00;99.90
10581;DHT22;5338;51.500;6.802;2022-09-11T08:35:53;16.60;99.90
10581;DHT22;5338;51.500;6.802;2022-09-11T08:43:21;16.10;99.90
10581;DHT22;5338;51.500;6.802;2022-09-11T08:45:50;15.90;99.90
10581;DHT22;5338;51.500;6.802;2022-09-11T08:48:23;16.10;99.90
10581;DHT22;5338;51.500;6.802;2022-09-11T08:50:53;16.20;99.90
10581;DHT22;5338;51.500;6.802;2022-09-11T08:55:49;16.30;99.90
10581;DHT22;5338;51.500;6.802;2022-09-11T08:58:26;16.30;99.90
10581;DHT22;5338;51.500;6.802;2022-09-11T09:01:03;16.30;99.90
10581;DHT22;5338;51.500;6.802;2022-09-11T09:03:51;16.30;99.90
10581;DHT22;5338;51.500;6.802;2022-09-11T09:06:37;16.40;99.90
10581;DHT22;5338;51.500;6.802;2022-09-11T09:09:11;16.40;99.90
10581;DHT22;5338;51.500;6.802;2022-09-11T09:11:45;16.30;99.90
10581;DHT22;5338;51.500;6.802;2022-09-11T09:14:32;16.30;99.90
10581;DHT22;5338;51.500;6.802;2022-09-11T09:17:07;16.30;99.90
10581;DHT22;5338;51.500;6.802;2022-09-11T09:19:40;16.30;99.90
10581;DHT22;5338;51.500;6.802;2022-09-11T09:22:13;16.40;99.90
10581;DHT22;5338;51.500;6.802;2022-09-11T09:24:44;16.40;99.90
10581;DHT22;5338;51.500;6.802;2022-09-11T09:27:17;16.40;99.90
10581;DHT22;5338;51.500;6.802;2022-09-11T09:29:49;16.30;99.90
10581;DHT22;5338;51.500;6.802;2022-09-11T09:32:22;16.40;99.90
10581;DHT22;5338;51.500;6.802;2022-09-11T09:34:55;16.30;99.90
10581;DHT22;5338;51.500;6.802;2022-09-11T09:42:46;16.50;99.90
10581;DHT22;5338;51.500;6.802;2022-09-11T09:45:46;16.40;99.90
10581;DHT22;5338;51.500;6.802;2022-09-11T09:48:17;16.80;99.90
10581;DHT22;5338;51.500;6.802;2022-09-11T09:50:44;16.80;99.90
10581;DHT22;5338;51.500;6.802;2022-09-11T09:53:16;16.50;99.90
10581;DHT22;5338;51.500;6.802;2022-09-11T09:55:45;16.90;99.90
10581;DHT22;5338;51.500;6.802;2022-09-11T10:00:41;16.80;99.90
10581;DHT22;5338;51.500;6.802;2022-09-11T10:03:18;17.00;99.90
10581;DHT22;5338;51.500;6.802;2022-09-11T10:05:45;16.40;99.90
10581;DHT22;5338;51.500;6.802;2022-09-11T10:08:25;16.90;99.90
10581;DHT22;5338;51.500;6.802;2022-09-11T10:10:54;16.90;99.90
10581;DHT22;5338;51.500;6.802;2022-09-11T10:13:23;16.90;99.90
10581;DHT22;5338;51.500;6.802;2022-09-11T10:15:55;16.90;99.90
10581;DHT22;5338;51.500;6.802;2022-09-11T10:18:33;16.80;99.90
10581;DHT22;5338;51.500;6.802;2022-09-11T10:21:19;16.70;99.90
10581;DHT22;5338;51.500;6.802;2022-09-11T10:23:49;16.90;99.90
10581;DHT22;5338;51.500;6.802;2022-09-11T10:26:18;17.00;99.90
10581;DHT22;5338;51.500;6.802;2022-09-11T10:31:18;17.10;99.90
10581;DHT22;5338;51.500;6.802;2022-09-11T10:33:49;17.20;99.90
10581;DHT22;5338;51.500;6.802;2022-09-11T10:36:22;17.20;99.90
10581;DHT22;5338;51.500;6.802;2022-09-11T10:38:50;17.10;99.90
10581;DHT22;5338;51.500;6.802;2022-09-11T10:41:19;17.30;99.90
10581;DHT22;5338;51.500;6.802;2022-09-11T10:43:52;17.10;99.90
10581;DHT22;5338;51.500;6.802;2022-09-11T10:46:30;17.10;99.90
10581;DHT22;5338;51.500;6.802;2022-09-11T10:49:06;17.30;99.90
10581;DHT22;5338;51.500;6.802;2022-09-11T10:51:35;17.00;99.90
10581;DHT22;5338;51.500;6.802;2022-09-11T10:54:13;17.10;99.90
10581;DHT22;5338;51.500;6.802;2022-09-11T10:56:54;17.10;99.90
10581;DHT22;5338;51.500;6.802;2022-09-11T10:59:29;17.20;99.90
10581;DHT22;5338;51.500;6.802;2022-09-11T11:02:00;17.10;99.90
10581;DHT22;5338;51.500;6.802;2022-09-11T11:04:30;17.30;99.90
10581;DHT22;5338;51.500;6.802;2022-09-11T11:07:04;17.30;99.90
10581;DHT22;5338;51.500;6.802;2022-09-11T11:09:47;17.20;99.90
10581;DHT22;5338;51.500;6.802;2022-09-11T11:12:32;17.60;99.90
10581;DHT22;5338;51.500;6.802;2022-09-11T11:15:21;17.60;99.90
10581;DHT22;5338;51.500;6.802;2022-09-11T11:18:07;17.70;99.90
10581;DHT22;5338;51.500;6.802;2022-09-11T11:20:44;17.80;99.90
10581;DHT22;5338;51.500;6.802;2022-09-11T11:23:59;17.80;99.90
10581;DHT22;5338;51.500;6.802;2022-09-11T11:26:37;17.80;99.90
10581;DHT22;5338;51.500;6.802;2022-09-11T11:29:26;18.40;99.90
10581;DHT22;5338;51.500;6.802;2022-09-11T11:32:11;19.40;99.90
10581;DHT22;5338;51.500;6.802;2022-09-11T11:34:54;19.30;99.90
10581;DHT22;5338;51.500;6.802;2022-09-11T11:37:30;19.40;99.90
10581;DHT22;5338;51.500;6.802;2022-09-11T11:40:03;20.20;99.90
10581;DHT22;5338;51.500;6.802;2022-09-11T11:42:34;20.40;99.90
10581;DHT22;5338;51.500;6.802;2022-09-11T11:45:07;20.40;99.90
10581;DHT22;5338;51.500;6.802;2022-09-11T11:47:38;20.80;99.90
10581;DHT22;5338;51.500;6.802;2022-09-11T11:50:15;20.70;99.90
10581;DHT22;5338;51.500;6.802;2022-09-11T11:52:52;20.90;99.90
10581;DHT22;5338;51.500;6.802;2022-09-11T11:55:24;21.40;99.90
10581;DHT22;5338;51.500;6.802;2022-09-11T11:57:59;21.30;99.90
10581;DHT22;5338;51.500;6.802;2022-09-11T12:00:32;21.00;99.90
10581;DHT22;5338;51.500;6.802;2022-09-11T12:03:09;21.50;99.90
10581;DHT22;5338;51.500;6.802;2022-09-11T12:05:40;21.50;99.90
10581;DHT22;5338;51.500;6.802;2022-09-11T12:08:11;21.80;99.90
10581;DHT22;5338;51.500;6.802;2022-09-11T12:10:40;21.70;99.90
10581;DHT22;5338;51.500;6.802;2022-09-11T12:13:12;21.80;99.90
10581;DHT22;5338;51.500;6.802;2022-09-11T12:15:59;21.90;99.90
10581;DHT22;5338;51.500;6.802;2022-09-11T12:24:12;21.00;99.90
10581;DHT22;5338;51.500;6.802;2022-09-11T12:32:26;21.20;99.90
10581;DHT22;5338;51.500;6.802;2022-09-11T12:35:17;21.60;99.90
10581;DHT22;5338;51.500;6.802;2022-09-11T12:37:50;21.20;99.90
10581;DHT22;5338;51.500;6.802;2022-09-11T12:40:26;21.20;99.90
10581;DHT22;5338;51.500;6.802;2022-09-11T12:43:05;21.40;99.90
10581;DHT22;5338;51.500;6.802;2022-09-11T12:48:10;21.50;99.90
10581;DHT22;5338;51.500;6.802;2022-09-11T12:50:39;21.70;99.90
10581;DHT22;5338;51.500;6.802;2022-09-11T12:53:16;22.20;99.90
10581;DHT22;5338;51.500;6.802;2022-09-11T12:55:53;21.90;99.90
10581;DHT22;5338;51.500;6.802;2022-09-11T12:58:25;21.50;99.90
10581;DHT22;5338;51.500;6.802;2022-09-11T13:01:02;21.40;99.90
10581;DHT22;5338;51.500;6.802;2022-09-11T13:05:59;21.60;99.90
10581;DHT22;5338;51.500;6.802;2022-09-11T13:08:30;21.50;99.90
10581;DHT22;5338;51.500;6.802;2022-09-11T13:11:38;21.20;99.90
10581;DHT22;5338;51.500;6.802;2022-09-11T13:14:44;21.40;99.90
10581;DHT22;5338;51.500;6.802;2022-09-11T13:17:14;21.60;99.90
10581;DHT22;5338;51.500;6.802;2022-09-11T13:19:42;21.50;99.90
10581;DHT22;5338;51.500;6.802;2022-09-11T13:22:21;22.20;99.90
10581;DHT22;5338;51.500;6.802;2022-09-11T13:24:49;22.20;99.90
10581;DHT22;5338;51.500;6.802;2022-09-11T13:27:21;22.10;99.90
10581;DHT22;5338;51.500;6.802;2022-09-11T13:29:52;21.80;99.90
10581;DHT22;5338;51.500;6.802;2022-09-11T13:34:55;21.60;99.90
10581;DHT22;5338;51.500;6.802;2022-09-11T13:37:34;21.90;99.90
10581;DHT22;5338;51.500;6.802;2022-09-11T13:40:03;22.00;99.90
10581;DHT22;5338;51.500;6.802;2022-09-11T13:42:32;21.90;99.90
10581;DHT22;5338;51.500;6.802;2022-09-11T13:47:28;22.10;99.90
10581;DHT22;5338;51.500;6.802;2022-09-11T13:49:58;22.10;99.90
10581;DHT22;5338;51.500;6.802;2022-09-11T13:52:28;22.20;99.90
10581;DHT22;5338;51.500;6.802;2022-09-11T13:54:58;22.10;99.90
10581;DHT22;5338;51.500;6.802;2022-09-11T13:57:26;22.40;99.90
10581;DHT22;5338;51.500;6.802;2022-09-11T13:59:57;22.20;99.90
10581;DHT22;5338;51.500;6.802;2022-09-11T14:02:44;22.20;99.90
10581;DHT22;5338;51.500;6.802;2022-09-11T14:05:15;22.10;99.90
10581;DHT22;5338;51.500;6.802;2022-09-11T14:07:56;22.00;99.90
10581;DHT22;5338;51.500;6.802;2022-09-11T14:10:27;22.00;99.90
10581;DHT22;5338;51.500;6.802;2022-09-11T14:13:02;22.00;99.90
10581;DHT22;5338;51.500;6.802;2022-09-11T14:15:36;21.90;99.90
10581;DHT22;5338;51.500;6.802;2022-09-11T14:18:08;22.30;99.90
10581;DHT22;5338;51.500;6.802;2022-09-11T14:20:40;22.00;99.90
10581;DHT22;5338;51.500;6.802;2022-09-11T14:23:15;22.00;99.90
10581;DHT22;5338;51.500;6.802;2022-09-11T14:26:09;22.10;99.90
10581;DHT22;5338;51.500;6.802;2022-09-11T14:28:42;22.20;99.90
10581;DHT22;5338;51.500;6.802;2022-09-11T14:31:11;22.00;99.90
10581;DHT22;5338;51.500;6.802;2022-09-11T14:36:14;22.10;99.90
10581;DHT22;5338;51.500;6.802;2022-09-11T14:48:34;21.90;99.90
10581;DHT22;5338;51.500;6.802;2022-09-11T14:51:03;21.80;99.90
10581;DHT22;5338;51.500;6.802;2022-09-11T14:53:33;21.80;99.90
10581;DHT22;5338;51.500;6.802;2022-09-11T14:56:01;21.50;99.90
10581;DHT22;5338;51.500;6.802;2022-09-11T14:58:29;21.90;99.90
10581;DHT22;5338;51.500;6.802;2022-09-11T15:05:54;21.80;99.90
10581;DHT22;5338;51.500;6.802;2022-09-11T15:15:45;21.90;99.90
10581;DHT22;5338;51.500;6.802;2022-09-11T15:23:08;21.90;99.90
10581;DHT22;5338;51.500;6.802;2022-09-11T15:40:21;21.60;99.90
10581;DHT22;5338;51.500;6.802;2022-09-11T15:45:16;21.20;99.90
10581;DHT22;5338;51.500;6.802;2022-09-11T15:57:40;21.30;99.90
10581;DHT22;5338;51.500;6.802;2022-09-11T16:00:08;20.60;99.90
10581;DHT22;5338;51.500;6.802;2022-09-11T16:07:30;20.50;99.90
10581;DHT22;5338;51.500;6.802;2022-09-11T16:09:56;20.40;99.90
10581;DHT22;5338;51.500;6.802;2022-09-11T16:14:52;20.00;99.90
10581;DHT22;5338;51.500;6.802;2022-09-11T16:24:45;20.00;99.90
10581;DHT22;5338;51.500;6.802;2022-09-11T16:32:08;19.60;99.90
10581;DHT22;5338;51.500;6.802;2022-09-11T16:49:22;19.50;99.90
10581;DHT22;5338;51.500;6.802;2022-09-11T16:54:16;19.40;99.90
10581;DHT22;5338;51.500;6.802;2022-09-11T16:59:10;19.50;99.90
10581;DHT22;5338;51.500;6.802;2022-09-11T17:06:33;19.40;99.90
10581;DHT22;5338;51.500;6.802;2022-09-11T17:09:01;19.40;99.90
10581;DHT22;5338;51.500;6.802;2022-09-11T17:11:31;19.40;99.90
10581;DHT22;5338;51.500;6.802;2022-09-11T17:14:00;19.50;99.90
10581;DHT22;5338;51.500;6.802;2022-09-11T17:16:28;19.30;99.90
10581;DHT22;5338;51.500;6.802;2022-09-11T17:18:58;19.20;99.90
10581;DHT22;5338;51.500;6.802;2022-09-11T17:21:27;19.20;99.90
10581;DHT22;5338;51.500;6.802;2022-09-11T17:23:55;19.10;99.90
10581;DHT22;5338;51.500;6.802;2022-09-11T17:28:50;19.10;99.90
10581;DHT22;5338;51.500;6.802;2022-09-11T17:31:18;19.00;99.90
10581;DHT22;5338;51.500;6.802;2022-09-11T17:33:47;19.00;99.90
10581;DHT22;5338;51.500;6.802;2022-09-11T17:36:15;18.90;99.90
10581;DHT22;5338;51.500;6.802;2022-09-11T17:41:13;18.80;99.90
10581;DHT22;5338;51.500;6.802;2022-09-11T17:46:09;18.70;99.90
10581;DHT22;5338;51.500;6.802;2022-09-11T17:48:37;18.60;99.90
10581;DHT22;5338;51.500;6.802;2022-09-11T17:51:06;18.30;99.90
10581;DHT22;5338;51.500;6.802;2022-09-11T17:53:35;18.50;99.90
10581;DHT22;5338;51.500;6.802;2022-09-11T17:56:05;18.50;99.90
10581;DHT22;5338;51.500;6.802;2022-09-11T17:58:34;18.40;99.90
10581;DHT22;5338;51.500;6.802;2022-09-11T18:03:29;18.30;99.90
10581;DHT22;5338;51.500;6.802;2022-09-11T18:05:56;18.20;99.90
10581;DHT22;5338;51.500;6.802;2022-09-11T18:08:24;18.20;99.90
10581;DHT22;5338;51.500;6.802;2022-09-11T18:10:53;18.20;99.90
10581;DHT22;5338;51.500;6.802;2022-09-11T18:15:49;18.10;99.90
10581;DHT22;5338;51.500;6.802;2022-09-11T18:23:11;18.20;99.90
10581;DHT22;5338;51.500;6.802;2022-09-11T18:25:39;18.00;99.90
10581;DHT22;5338;51.500;6.802;2022-09-11T18:30:35;17.90;99.90
10581;DHT22;5338;51.500;6.802;2022-09-11T18:33:07;17.50;99.90
10581;DHT22;5338;51.500;6.802;2022-09-11T18:50:36;17.50;99.90
10581;DHT22;5338;51.500;6.802;2022-09-11T19:02:54;17.40;99.90
10581;DHT22;5338;51.500;6.802;2022-09-11T19:07:50;17.40;99.90
10581;DHT22;5338;51.500;6.802;2022-09-11T19:12:47;17.30;99.90
10581;DHT22;5338;51.500;6.802;2022-09-11T19:20:09;17.20;99.90
10581;DHT22;5338;51.500;6.802;2022-09-11T19:25:07;17.30;99.90
10581;DHT22;5338;51.500;6.802;2022-09-11T19:27:34;17.50;99.90
10581;DHT22;5338;51.500;6.802;2022-09-11T19:30:02;17.30;99.90
10581;DHT22;5338;51.500;6.802;2022-09-11T19:42:22;16.90;99.90
10581;DHT22;5338;51.500;6.802;2022-09-11T19:57:07;16.60;99.90
10581;DHT22;5338;51.500;6.802;2022-09-11T19:59:35;16.80;99.90
10581;DHT22;5338;51.500;6.802;2022-09-11T20:14:18;16.80;99.90
10581;DHT22;5338;51.500;6.802;2022-09-11T20:16:46;16.60;99.90
10581;DHT22;5338;51.500;6.802;2022-09-11T20:21:42;16.60;99.90
10581;DHT22;5338;51.500;6.802;2022-09-11T20:29:05;16.60;99.90
10581;DHT22;5338;51.500;6.802;2022-09-11T20:31:33;16.60;99.90
10581;DHT22;5338;51.500;6.802;2022-09-11T20:34:02;16.50;99.90
10581;DHT22;5338;51.500;6.802;2022-09-11T20:38:57;16.50;99.90
10581;DHT22;5338;51.500;6.802;2022-09-11T20:41:25;16.50;99.90
10581;DHT22;5338;51.500;6.802;2022-09-11T20:43:54;16.20;99.90
10581;DHT22;5338;51.500;6.802;2022-09-11T20:51:19;16.50;99.90
10581;DHT22;5338;51.500;6.802;2022-09-11T20:56:16;16.40;99.90
10581;DHT22;5338;51.500;6.802;2022-09-11T21:01:12;16.30;99.90
10581;DHT22;5338;51.500;6.802;2022-09-11T21:03:44;16.30;99.90
10581;DHT22;5338;51.500;6.802;2022-09-11T21:08:39;16.20;99.90
10581;DHT22;5338;51.500;6.802;2022-09-11T21:11:07;16.40;99.90
10581;DHT22;5338;51.500;6.802;2022-09-11T21:16:04;16.10;99.90
10581;DHT22;5338;51.500;6.802;2022-09-11T21:18:31;16.20;99.90
10581;DHT22;5338;51.500;6.802;2022-09-11T21:23:25;15.90;99.90
10581;DHT22;5338;51.500;6.802;2022-09-11T21:25:53;16.10;99.90
10581;DHT22;5338;51.500;6.802;2022-09-11T21:35:42;16.90;99.90
10581;DHT22;5338;51.500;6.802;2022-09-11T21:43:04;15.90;99.90
10581;DHT22;5338;51.500;6.802;2022-09-11T21:55:20;15.80;99.90
10581;DHT22;5338;51.500;6.802;2022-09-11T22:00:15;15.70;99.90
10581;DHT22;5338;51.500;6.802;2022-09-11T22:07:36;15.60;99.90
10581;DHT22;5338;51.500;6.802;2022-09-11T22:10:05;15.70;99.90
10581;DHT22;5338;51.500;6.802;2022-09-11T22:17:28;15.70;99.90
10581;DHT22;5338;51.500;6.802;2022-09-11T22:34:39;15.60;99.90
10581;DHT22;5338;51.500;6.802;2022-09-11T22:46:56;15.70;99.90
10581;DHT22;5338;51.500;6.802;2022-09-11T22:51:51;15.50;99.90
10581;DHT22;5338;51.500;6.802;2022-09-11T23:09:20;15.20;99.90
10581;DHT22;5338;51.500;6.802;2022-09-11T23:19:11;15.30;99.90
10581;DHT22;5338;51.500;6.802;2022-09-11T23:24:06;15.30;99.90
10581;DHT22;5338;51.500;6.802;2022-09-11T23:26:36;15.30;99.90
10581;DHT22;5338;51.500;6.802;2022-09-11T23:29:03;15.30;99.90
10581;DHT22;5338;51.500;6.802;2022-09-11T23:31:31;15.20;99.90
10581;DHT22;5338;51.500;6.802;2022-09-11T23:33:59;15.20;99.90
10581;DHT22;5338;51.500;6.802;2022-09-11T23:36:27;15.10;99.90
10581;DHT22;5338;51.500;6.802;2022-09-11T23:41:22;15.20;99.90
10581;DHT22;5338;51.500;6.802;2022-09-11T23:43:50;15.00;99.90
10581;DHT22;5338;51.500;6.802;2022-09-11T23:46:17;15.30;99.90
10581;DHT22;5338;51.500;6.802;2022-09-11T23:51:11;15.20;99.90
10581;DHT22;5338;51.500;6.802;2022-09-11T23:53:40;15.10;99.90
10581;DHT22;5338;51.500;6.802;2022-09-11T23:56:08;15.10;99.90
